sensor_id;sensor_type;location;lat;lon;timestamp;temperature;humidity
18073;DHT22;9161;47.348;9.648;2024-03-02T00:02:14;6.00;99.90
18073;DHT22;9161;47.348;9.648;2024-03-02T00:07:18;6.00;99.90
18073;DHT22;9161;47.348;9.648;2024-03-02T00:12:21;6.00;99.90
18073;DHT22;9161;47.348;9.648;2024-03-02T00:17:25;5.90;99.90
18073;DHT22;9161;47.348;9.648;2024-03-02T00:22:29;5.90;99.90
18073;DHT22;9161;47.348;9.648;2024-03-02T00:27:31;5.80;99.90
18073;DHT22;9161;47.348;9.648;2024-03-02T00:32:33;5.80;99.90
18073;DHT22;9161;47.348;9.648;2024-03-02T00:37:38;5.80;99.90
18073;DHT22;9161;47.348;9.648;2024-03-02T00:42:40;5.70;99.90
18073;DHT22;9161;47.348;9.648;2024-03-02T00:47:42;5.80;99.90
18073;DHT22;9161;47.348;9.648;2024-03-02T00:52:46;5.80;99.90
18073;DHT22;9161;47.348;9.648;2024-03-02T00:57:50;5.80;99.90
18073;DHT22;9161;47.348;9.648;2024-03-02T01:02:53;5.70;99.90
18073;DHT22;9161;47.348;9.648;2024-03-02T01:07:56;5.70;99.90
18073;DHT22;9161;47.348;9.648;2024-03-02T01:12:59;5.70;99.90
18073;DHT22;9161;47.348;9.648;2024-03-02T01:18:01;5.70;99.90
18073;DHT22;9161;47.348;9.648;2024-03-02T01:23:05;5.70;99.90
18073;DHT22;9161;47.348;9.648;2024-03-02T01:28:07;5.80;99.90
18073;DHT22;9161;47.348;9.648;2024-03-02T01:33:09;5.80;99.90
18073;DHT22;9161;47.348;9.648;2024-03-02T01:38:13;5.80;99.90
18073;DHT22;9161;47.348;9.648;2024-03-02T01:43:15;5.90;99.90
18073;DHT22;9161;47.348;9.648;2024-03-02T01:48:17;5.90;99.90
18073;DHT22;9161;47.348;9.648;2024-03-02T01:53:22;5.90;99.90
18073;DHT22;9161;47.348;9.648;2024-03-02T01:58:24;5.90;99.90
18073;DHT22;9161;47.348;9.648;2024-03-02T02:03:27;5.90;99.90
18073;DHT22;9161;47.348;9.648;2024-03-02T02:08:31;5.90;99.90
18073;DHT22;9161;47.348;9.648;2024-03-02T02:13:33;6.00;99.90
18073;DHT22;9161;47.348;9.648;2024-03-02T02:18:36;5.90;99.90
18073;DHT22;9161;47.348;9.648;2024-03-02T02:23:40;5.80;99.90
18073;DHT22;9161;47.348;9.648;2024-03-02T02:28:46;5.80;99.90
18073;DHT22;9161;47.348;9.648;2024-03-02T02:33:48;5.80;99.90
18073;DHT22;9161;47.348;9.648;2024-03-02T02:38:53;5.90;99.90
18073;DHT22;9161;47.348;9.648;2024-03-02T02:43:55;5.90;99.90
18073;DHT22;9161;47.348;9.648;2024-03-02T02:48:58;5.90;99.90
18073;DHT22;9161;47.348;9.648;2024-03-02T02:54:02;6.00;99.90
18073;DHT22;9161;47.348;9.648;2024-03-02T02:59:04;6.00;99.90
18073;DHT22;9161;47.348;9.648;2024-03-02T03:04:05;6.10;99.90
18073;DHT22;9161;47.348;9.648;2024-03-02T03:09:09;6.10;99.90
18073;DHT22;9161;47.348;9.648;2024-03-02T03:14:11;6.00;99.90
18073;DHT22;9161;47.348;9.648;2024-03-02T03:19:14;6.00;99.90
18073;DHT22;9161;47.348;9.648;2024-03-02T03:24:17;6.00;99.90
18073;DHT22;9161;47.348;9.648;2024-03-02T03:29:19;5.90;99.90
18073;DHT22;9161;47.348;9.648;2024-03-02T03:34:21;5.90;99.90
18073;DHT22;9161;47.348;9.648;2024-03-02T03:39:25;5.90;99.90
18073;DHT22;9161;47.348;9.648;2024-03-02T03:44:27;5.80;99.90
18073;DHT22;9161;47.348;9.648;2024-03-02T03:49:29;5.70;99.90
18073;DHT22;9161;47.348;9.648;2024-03-02T03:54:33;5.60;99.90
18073;DHT22;9161;47.348;9.648;2024-03-02T03:59:37;5.60;99.90
18073;DHT22;9161;47.348;9.648;2024-03-02T04:04:39;5.60;99.90
18073;DHT22;9161;47.348;9.648;2024-03-02T04:09:42;5.60;99.90
18073;DHT22;9161;47.348;9.648;2024-03-02T04:14:45;5.40;99.90
18073;DHT22;9161;47.348;9.648;2024-03-02T04:19:47;5.20;99.90
18073;DHT22;9161;47.348;9.648;2024-03-02T04:24:50;5.00;99.90
18073;DHT22;9161;47.348;9.648;2024-03-02T04:29:52;4.90;99.90
18073;DHT22;9161;47.348;9.648;2024-03-02T04:34:54;4.90;99.90
18073;DHT22;9161;47.348;9.648;2024-03-02T04:39:58;4.90;99.90
18073;DHT22;9161;47.348;9.648;2024-03-02T04:45:01;5.10;99.90
18073;DHT22;9161;47.348;9.648;2024-03-02T04:50:03;5.10;99.90
18073;DHT22;9161;47.348;9.648;2024-03-02T04:55:09;5.20;99.90
18073;DHT22;9161;47.348;9.648;2024-03-02T05:00:24;5.10;99.90
18073;DHT22;9161;47.348;9.648;2024-03-02T05:05:26;5.00;99.90
18073;DHT22;9161;47.348;9.648;2024-03-02T05:10:30;4.80;99.90
18073;DHT22;9161;47.348;9.648;2024-03-02T05:15:32;4.60;99.90
18073;DHT22;9161;47.348;9.648;2024-03-02T05:20:34;4.80;99.90
18073;DHT22;9161;47.348;9.648;2024-03-02T05:25:37;4.70;99.90
18073;DHT22;9161;47.348;9.648;2024-03-02T05:30:39;4.50;99.90
18073;DHT22;9161;47.348;9.648;2024-03-02T05:35:44;4.40;99.90
18073;DHT22;9161;47.348;9.648;2024-03-02T05:40:47;4.30;99.90
18073;DHT22;9161;47.348;9.648;2024-03-02T05:45:50;4.30;99.90
18073;DHT22;9161;47.348;9.648;2024-03-02T05:50:52;4.20;99.90
18073;DHT22;9161;47.348;9.648;2024-03-02T05:55:55;4.30;99.90
18073;DHT22;9161;47.348;9.648;2024-03-02T06:01:00;4.20;99.90
18073;DHT22;9161;47.348;9.648;2024-03-02T06:06:03;4.10;99.90
18073;DHT22;9161;47.348;9.648;2024-03-02T06:11:07;4.20;99.90
18073;DHT22;9161;47.348;9.648;2024-03-02T06:16:09;4.30;99.90
18073;DHT22;9161;47.348;9.648;2024-03-02T06:21:12;4.40;99.90
18073;DHT22;9161;47.348;9.648;2024-03-02T06:26:16;4.40;99.90
18073;DHT22;9161;47.348;9.648;2024-03-02T06:31:20;4.40;99.90
18073;DHT22;9161;47.348;9.648;2024-03-02T06:36:22;4.40;99.90
18073;DHT22;9161;47.348;9.648;2024-03-02T06:41:26;4.50;99.90
18073;DHT22;9161;47.348;9.648;2024-03-02T06:46:28;4.50;99.90
18073;DHT22;9161;47.348;9.648;2024-03-02T06:51:31;4.50;99.90
18073;DHT22;9161;47.348;9.648;2024-03-02T06:56:34;4.60;99.90
18073;DHT22;9161;47.348;9.648;2024-03-02T07:01:37;4.80;99.90
18073;DHT22;9161;47.348;9.648;2024-03-02T07:06:39;5.00;99.90
18073;DHT22;9161;47.348;9.648;2024-03-02T07:11:42;5.20;99.90
18073;DHT22;9161;47.348;9.648;2024-03-02T07:16:46;5.30;99.90
18073;DHT22;9161;47.348;9.648;2024-03-02T07:21:49;5.30;99.90
18073;DHT22;9161;47.348;9.648;2024-03-02T07:26:52;5.50;99.90
18073;DHT22;9161;47.348;9.648;2024-03-02T07:31:55;5.80;99.90
18073;DHT22;9161;47.348;9.648;2024-03-02T07:36:57;6.20;99.90
18073;DHT22;9161;47.348;9.648;2024-03-02T07:42:01;6.40;99.90
18073;DHT22;9161;47.348;9.648;2024-03-02T07:47:04;6.70;99.90
18073;DHT22;9161;47.348;9.648;2024-03-02T07:52:06;6.90;99.90
18073;DHT22;9161;47.348;9.648;2024-03-02T07:57:10;7.00;99.90
18073;DHT22;9161;47.348;9.648;2024-03-02T08:02:12;7.30;99.90
18073;DHT22;9161;47.348;9.648;2024-03-02T08:07:14;7.50;99.90
18073;DHT22;9161;47.348;9.648;2024-03-02T08:12:18;7.70;99.90
18073;DHT22;9161;47.348;9.648;2024-03-02T08:17:24;7.90;99.90
18073;DHT22;9161;47.348;9.648;2024-03-02T08:22:27;8.00;99.90
18073;DHT22;9161;47.348;9.648;2024-03-02T08:27:31;8.10;99.90
18073;DHT22;9161;47.348;9.648;2024-03-02T08:32:37;8.10;99.90
18073;DHT22;9161;47.348;9.648;2024-03-02T08:37:40;7.60;99.90
18073;DHT22;9161;47.348;9.648;2024-03-02T08:42:45;7.50;99.90
18073;DHT22;9161;47.348;9.648;2024-03-02T08:47:48;7.80;99.90
18073;DHT22;9161;47.348;9.648;2024-03-02T08:52:50;8.30;99.90
18073;DHT22;9161;47.348;9.648;2024-03-02T08:57:54;9.00;99.90
18073;DHT22;9161;47.348;9.648;2024-03-02T09:02:57;9.60;99.90
18073;DHT22;9161;47.348;9.648;2024-03-02T09:07:59;9.40;99.90
18073;DHT22;9161;47.348;9.648;2024-03-02T09:13:03;9.80;99.90
18073;DHT22;9161;47.348;9.648;2024-03-02T09:18:06;10.00;99.90
18073;DHT22;9161;47.348;9.648;2024-03-02T09:23:08;10.40;99.90
18073;DHT22;9161;47.348;9.648;2024-03-02T09:28:12;11.40;99.90
18073;DHT22;9161;47.348;9.648;2024-03-02T09:33:14;11.90;99.90
18073;DHT22;9161;47.348;9.648;2024-03-02T09:38:17;12.30;99.90
18073;DHT22;9161;47.348;9.648;2024-03-02T09:43:21;14.00;99.90
18073;DHT22;9161;47.348;9.648;2024-03-02T09:48:23;15.50;99.90
18073;DHT22;9161;47.348;9.648;2024-03-02T09:53:28;16.40;99.90
18073;DHT22;9161;47.348;9.648;2024-03-02T09:58:34;16.80;99.90
18073;DHT22;9161;47.348;9.648;2024-03-02T10:03:37;17.40;99.90
18073;DHT22;9161;47.348;9.648;2024-03-02T10:08:43;16.10;99.90
18073;DHT22;9161;47.348;9.648;2024-03-02T10:13:47;17.10;99.90
18073;DHT22;9161;47.348;9.648;2024-03-02T10:18:49;16.80;99.90
18073;DHT22;9161;47.348;9.648;2024-03-02T10:23:52;16.00;99.90
18073;DHT22;9161;47.348;9.648;2024-03-02T10:28:56;15.70;99.90
18073;DHT22;9161;47.348;9.648;2024-03-02T10:34:00;12.80;99.90
18073;DHT22;9161;47.348;9.648;2024-03-02T10:39:05;12.30;99.90
18073;DHT22;9161;47.348;9.648;2024-03-02T10:44:09;11.80;99.90
18073;DHT22;9161;47.348;9.648;2024-03-02T10:49:12;11.60;99.90
18073;DHT22;9161;47.348;9.648;2024-03-02T10:54:15;11.50;99.90
18073;DHT22;9161;47.348;9.648;2024-03-02T10:59:27;11.50;99.90
18073;DHT22;9161;47.348;9.648;2024-03-02T11:04:30;11.70;99.90
18073;DHT22;9161;47.348;9.648;2024-03-02T11:09:35;12.50;99.90
18073;DHT22;9161;47.348;9.648;2024-03-02T11:14:41;12.70;99.90
18073;DHT22;9161;47.348;9.648;2024-03-02T11:19:45;13.10;99.90
18073;DHT22;9161;47.348;9.648;2024-03-02T11:24:48;13.50;99.90
18073;DHT22;9161;47.348;9.648;2024-03-02T11:29:53;14.10;99.90
18073;DHT22;9161;47.348;9.648;2024-03-02T11:34:55;14.70;99.90
18073;DHT22;9161;47.348;9.648;2024-03-02T11:39:57;16.10;99.90
18073;DHT22;9161;47.348;9.648;2024-03-02T11:45:01;17.30;99.90
18073;DHT22;9161;47.348;9.648;2024-03-02T11:50:04;17.60;99.90
18073;DHT22;9161;47.348;9.648;2024-03-02T11:55:08;16.90;99.90
18073;DHT22;9161;47.348;9.648;2024-03-02T12:00:18;16.30;99.90
18073;DHT22;9161;47.348;9.648;2024-03-02T12:05:21;16.10;99.90
18073;DHT22;9161;47.348;9.648;2024-03-02T12:10:23;16.30;99.90
18073;DHT22;9161;47.348;9.648;2024-03-02T12:15:28;16.80;99.90
18073;DHT22;9161;47.348;9.648;2024-03-02T12:20:32;18.60;99.90
18073;DHT22;9161;47.348;9.648;2024-03-02T12:25:35;21.00;99.90
18073;DHT22;9161;47.348;9.648;2024-03-02T12:30:38;24.00;99.90
18073;DHT22;9161;47.348;9.648;2024-03-02T12:35:41;24.10;99.90
18073;DHT22;9161;47.348;9.648;2024-03-02T12:40:43;25.50;99.90
18073;DHT22;9161;47.348;9.648;2024-03-02T12:45:47;26.30;96.40
18073;DHT22;9161;47.348;9.648;2024-03-02T12:50:49;23.20;99.70
18073;DHT22;9161;47.348;9.648;2024-03-02T12:55:51;24.40;99.90
18073;DHT22;9161;47.348;9.648;2024-03-02T13:01:07;25.60;97.40
18073;DHT22;9161;47.348;9.648;2024-03-02T13:06:10;26.70;93.90
18073;DHT22;9161;47.348;9.648;2024-03-02T13:11:13;25.70;93.70
18073;DHT22;9161;47.348;9.648;2024-03-02T13:16:17;26.70;90.40
18073;DHT22;9161;47.348;9.648;2024-03-02T13:21:28;26.70;91.70
18073;DHT22;9161;47.348;9.648;2024-03-02T13:26:31;26.60;89.60
18073;DHT22;9161;47.348;9.648;2024-03-02T13:31:34;26.30;90.00
18073;DHT22;9161;47.348;9.648;2024-03-02T13:36:36;27.10;88.80
18073;DHT22;9161;47.348;9.648;2024-03-02T13:41:40;26.60;89.60
18073;DHT22;9161;47.348;9.648;2024-03-02T13:46:43;28.10;90.10
18073;DHT22;9161;47.348;9.648;2024-03-02T13:51:47;29.60;86.00
18073;DHT22;9161;47.348;9.648;2024-03-02T13:56:49;28.70;83.20
18073;DHT22;9161;47.348;9.648;2024-03-02T14:01:53;28.20;82.30
18073;DHT22;9161;47.348;9.648;2024-03-02T14:06:55;27.60;84.70
18073;DHT22;9161;47.348;9.648;2024-03-02T14:11:57;28.20;87.30
18073;DHT22;9161;47.348;9.648;2024-03-02T14:17:03;28.90;83.00
18073;DHT22;9161;47.348;9.648;2024-03-02T14:22:06;29.30;80.30
18073;DHT22;9161;47.348;9.648;2024-03-02T14:27:09;28.70;80.50
18073;DHT22;9161;47.348;9.648;2024-03-02T14:32:29;28.60;82.20
18073;DHT22;9161;47.348;9.648;2024-03-02T14:37:31;29.20;80.00
18073;DHT22;9161;47.348;9.648;2024-03-02T14:42:34;28.90;78.10
18073;DHT22;9161;47.348;9.648;2024-03-02T14:47:38;28.00;79.20
18073;DHT22;9161;47.348;9.648;2024-03-02T14:52:41;26.30;82.70
18073;DHT22;9161;47.348;9.648;2024-03-02T14:57:45;26.40;83.40
18073;DHT22;9161;47.348;9.648;2024-03-02T15:02:49;25.70;84.10
18073;DHT22;9161;47.348;9.648;2024-03-02T15:07:52;25.30;86.80
18073;DHT22;9161;47.348;9.648;2024-03-02T15:12:55;23.50;90.00
18073;DHT22;9161;47.348;9.648;2024-03-02T15:17:59;21.20;92.10
18073;DHT22;9161;47.348;9.648;2024-03-02T15:23:03;19.10;95.10
18073;DHT22;9161;47.348;9.648;2024-03-02T15:28:06;17.50;96.50
18073;DHT22;9161;47.348;9.648;2024-03-02T15:33:10;17.10;98.10
18073;DHT22;9161;47.348;9.648;2024-03-02T15:38:13;16.50;98.90
18073;DHT22;9161;47.348;9.648;2024-03-02T15:43:28;15.90;99.40
18073;DHT22;9161;47.348;9.648;2024-03-02T15:48:33;16.00;99.90
18073;DHT22;9161;47.348;9.648;2024-03-02T15:53:36;15.70;99.90
18073;DHT22;9161;47.348;9.648;2024-03-02T15:58:38;15.60;99.90
18073;DHT22;9161;47.348;9.648;2024-03-02T16:03:42;15.30;99.90
18073;DHT22;9161;47.348;9.648;2024-03-02T16:08:44;14.70;99.90
18073;DHT22;9161;47.348;9.648;2024-03-02T16:13:47;14.40;99.90
18073;DHT22;9161;47.348;9.648;2024-03-02T16:18:51;14.30;99.90
18073;DHT22;9161;47.348;9.648;2024-03-02T16:23:53;13.70;99.90
18073;DHT22;9161;47.348;9.648;2024-03-02T16:28:56;13.60;99.90
18073;DHT22;9161;47.348;9.648;2024-03-02T16:33:59;13.20;99.90
18073;DHT22;9161;47.348;9.648;2024-03-02T16:39:02;12.80;99.90
18073;DHT22;9161;47.348;9.648;2024-03-02T16:44:06;12.30;99.90
18073;DHT22;9161;47.348;9.648;2024-03-02T16:49:09;11.90;99.90
18073;DHT22;9161;47.348;9.648;2024-03-02T16:54:12;11.70;99.90
18073;DHT22;9161;47.348;9.648;2024-03-02T16:59:15;11.40;99.90
18073;DHT22;9161;47.348;9.648;2024-03-02T17:04:18;11.40;99.90
18073;DHT22;9161;47.348;9.648;2024-03-02T17:09:24;11.00;99.90
18073;DHT22;9161;47.348;9.648;2024-03-02T17:14:27;11.10;99.90
18073;DHT22;9161;47.348;9.648;2024-03-02T17:19:31;10.90;99.90
18073;DHT22;9161;47.348;9.648;2024-03-02T17:24:34;10.70;99.90
18073;DHT22;9161;47.348;9.648;2024-03-02T17:29:37;10.60;99.90
18073;DHT22;9161;47.348;9.648;2024-03-02T17:34:41;10.50;99.90
18073;DHT22;9161;47.348;9.648;2024-03-02T17:39:43;10.20;99.90
18073;DHT22;9161;47.348;9.648;2024-03-02T17:44:46;10.20;99.90
18073;DHT22;9161;47.348;9.648;2024-03-02T17:49:51;10.00;99.90
18073;DHT22;9161;47.348;9.648;2024-03-02T17:54:54;10.00;99.90
18073;DHT22;9161;47.348;9.648;2024-03-02T17:59:57;10.10;99.90
18073;DHT22;9161;47.348;9.648;2024-03-02T18:05:00;10.10;99.90
18073;DHT22;9161;47.348;9.648;2024-03-02T18:10:06;9.80;99.90
18073;DHT22;9161;47.348;9.648;2024-03-02T18:15:09;9.70;99.90
18073;DHT22;9161;47.348;9.648;2024-03-02T18:20:14;9.60;99.90
18073;DHT22;9161;47.348;9.648;2024-03-02T18:25:16;9.60;99.90
18073;DHT22;9161;47.348;9.648;2024-03-02T18:30:24;9.60;99.90
18073;DHT22;9161;47.348;9.648;2024-03-02T18:35:27;9.60;99.90
18073;DHT22;9161;47.348;9.648;2024-03-02T18:40:29;9.50;99.90
18073;DHT22;9161;47.348;9.648;2024-03-02T18:45:31;9.40;99.90
18073;DHT22;9161;47.348;9.648;2024-03-02T18:50:36;9.30;99.90
18073;DHT22;9161;47.348;9.648;2024-03-02T18:55:38;9.10;99.90
18073;DHT22;9161;47.348;9.648;2024-03-02T19:00:40;9.20;99.90
18073;DHT22;9161;47.348;9.648;2024-03-02T19:05:44;9.10;99.90
18073;DHT22;9161;47.348;9.648;2024-03-02T19:10:47;8.90;99.90
18073;DHT22;9161;47.348;9.648;2024-03-02T19:15:49;9.00;99.90
18073;DHT22;9161;47.348;9.648;2024-03-02T19:20:54;8.90;99.90
18073;DHT22;9161;47.348;9.648;2024-03-02T19:25:56;8.50;99.90
18073;DHT22;9161;47.348;9.648;2024-03-02T19:30:58;8.30;99.90
18073;DHT22;9161;47.348;9.648;2024-03-02T19:36:02;8.00;99.90
18073;DHT22;9161;47.348;9.648;2024-03-02T19:41:04;7.70;99.90
18073;DHT22;9161;47.348;9.648;2024-03-02T19:46:07;7.60;99.90
18073;DHT22;9161;47.348;9.648;2024-03-02T19:51:11;7.70;99.90
18073;DHT22;9161;47.348;9.648;2024-03-02T19:56:17;7.80;99.90
18073;DHT22;9161;47.348;9.648;2024-03-02T20:01:20;7.90;99.90
18073;DHT22;9161;47.348;9.648;2024-03-02T20:06:23;9.50;99.90
18073;DHT22;9161;47.348;9.648;2024-03-02T20:11:26;10.60;99.90
18073;DHT22;9161;47.348;9.648;2024-03-02T20:16:32;11.30;99.90
18073;DHT22;9161;47.348;9.648;2024-03-02T20:21:35;11.30;99.90
18073;DHT22;9161;47.348;9.648;2024-03-02T20:26:38;11.40;99.90
18073;DHT22;9161;47.348;9.648;2024-03-02T20:31:40;12.00;99.90
18073;DHT22;9161;47.348;9.648;2024-03-02T20:36:44;12.20;99.90
18073;DHT22;9161;47.348;9.648;2024-03-02T20:41:48;12.30;99.90
18073;DHT22;9161;47.348;9.648;2024-03-02T20:46:51;12.40;99.90
18073;DHT22;9161;47.348;9.648;2024-03-02T20:51:55;12.30;99.90
18073;DHT22;9161;47.348;9.648;2024-03-02T20:56:58;12.10;99.90
18073;DHT22;9161;47.348;9.648;2024-03-02T21:02:06;12.10;99.90
18073;DHT22;9161;47.348;9.648;2024-03-02T21:07:10;12.00;99.90
18073;DHT22;9161;47.348;9.648;2024-03-02T21:12:13;11.90;99.90
18073;DHT22;9161;47.348;9.648;2024-03-02T21:17:15;11.90;99.90
18073;DHT22;9161;47.348;9.648;2024-03-02T21:22:19;12.10;99.90
18073;DHT22;9161;47.348;9.648;2024-03-02T21:27:22;12.10;99.90
18073;DHT22;9161;47.348;9.648;2024-03-02T21:32:24;12.30;99.90
18073;DHT22;9161;47.348;9.648;2024-03-02T21:37:28;12.00;99.90
18073;DHT22;9161;47.348;9.648;2024-03-02T21:42:31;12.00;99.90
18073;DHT22;9161;47.348;9.648;2024-03-02T21:47:33;12.00;99.90
18073;DHT22;9161;47.348;9.648;2024-03-02T21:52:37;12.20;99.90
18073;DHT22;9161;47.348;9.648;2024-03-02T21:57:39;12.10;99.90
18073;DHT22;9161;47.348;9.648;2024-03-02T22:02:42;12.10;99.90
18073;DHT22;9161;47.348;9.648;2024-03-02T22:07:45;12.30;99.80
18073;DHT22;9161;47.348;9.648;2024-03-02T22:12:47;12.10;99.90
18073;DHT22;9161;47.348;9.648;2024-03-02T22:17:49;12.30;99.50
18073;DHT22;9161;47.348;9.648;2024-03-02T22:22:54;12.00;99.90
18073;DHT22;9161;47.348;9.648;2024-03-02T22:27:56;12.00;99.90
18073;DHT22;9161;47.348;9.648;2024-03-02T22:32:59;12.00;99.90
18073;DHT22;9161;47.348;9.648;2024-03-02T22:38:03;12.20;99.90
18073;DHT22;9161;47.348;9.648;2024-03-02T22:43:05;12.30;99.60
18073;DHT22;9161;47.348;9.648;2024-03-02T22:48:07;12.30;99.50
18073;DHT22;9161;47.348;9.648;2024-03-02T22:53:11;12.50;98.90
18073;DHT22;9161;47.348;9.648;2024-03-02T22:58:13;12.30;99.30
18073;DHT22;9161;47.348;9.648;2024-03-02T23:03:16;12.20;99.30
18073;DHT22;9161;47.348;9.648;2024-03-02T23:08:20;12.30;98.90
18073;DHT22;9161;47.348;9.648;2024-03-02T23:13:22;12.20;99.00
18073;DHT22;9161;47.348;9.648;2024-03-02T23:18:24;12.10;99.00
18073;DHT22;9161;47.348;9.648;2024-03-02T23:23:28;12.10;99.40
18073;DHT22;9161;47.348;9.648;2024-03-02T23:28:31;12.10;99.50
18073;DHT22;9161;47.348;9.648;2024-03-02T23:33:33;12.10;99.50
18073;DHT22;9161;47.348;9.648;2024-03-02T23:38:36;12.10;99.90
18073;DHT22;9161;47.348;9.648;2024-03-02T23:43:38;12.00;99.90
18073;DHT22;9161;47.348;9.648;2024-03-02T23:48:41;11.90;99.90
18073;DHT22;9161;47.348;9.648;2024-03-02T23:53:44;11.90;99.90
18073;DHT22;9161;47.348;9.648;2024-03-02T23:58:47;11.90;99.90
